Time;durP1;ratioP1;P1;durP2;ratioP2;P2;SDS_P1;SDS_P2;PMS_P1;PMS_P2;Temp;Humidity;BMP_temperature;BMP_pressure;BME280_temperature;BME280_humidity;BME280_pressure;Samples;Min_cycle;Max_cycle;Signal;HPM_P1;HPM_P2
2022/12/20 00:01:25;;;;;;;6.30;5.70;;;10.20;81.60;;;12.74;59.01;101309.47;5053318;28;20200;-53
2022/12/20 00:03:55;;;;;;;7.07;5.63;;;10.20;81.50;;;12.77;59.12;101314.38;5052940;28;20185;-53
2022/12/20 00:06:23;;;;;;;7.57;5.60;;;10.20;81.50;;;12.79;58.90;101317.69;5053736;28;20666;-52
2022/12/20 00:08:53;;;;;;;7.27;5.53;;;10.20;81.60;;;12.77;58.87;101304.66;5053631;28;20210;-52
2022/12/20 00:11:21;;;;;;;6.83;5.10;;;10.20;81.60;;;12.83;58.94;101303.16;5055425;28;20195;-54
2022/12/20 00:13:49;;;;;;;8.30;5.63;;;10.30;81.70;;;12.82;58.62;101301.50;5054338;28;20609;-53
2022/12/20 00:16:19;;;;;;;5.43;4.97;;;10.20;81.70;;;12.83;58.97;101297.84;5054049;28;20186;-52
2022/12/20 00:18:49;;;;;;;6.37;5.77;;;10.30;81.80;;;12.82;59.05;101297.03;5055535;28;20210;-52
2022/12/20 00:21:16;;;;;;;4.50;4.10;;;10.30;81.80;;;12.86;58.83;101289.56;5055820;28;20197;-53
2022/12/20 00:23:43;;;;;;;5.53;4.97;;;10.30;81.80;;;12.91;58.98;101284.56;5054851;28;20190;-52
2022/12/20 00:26:14;;;;;;;8.13;5.73;;;10.30;81.90;;;12.93;58.90;101283.41;5053964;28;20252;-54
2022/12/20 00:28:43;;;;;;;6.00;5.10;;;10.30;82.00;;;12.97;58.97;101278.59;5053701;28;20209;-54
2022/12/20 00:31:16;;;;;;;6.30;5.57;;;10.40;82.10;;;12.98;58.96;101268.88;5053755;28;20205;-55
2022/12/20 00:33:46;;;;;;;5.83;5.23;;;10.40;82.10;;;13.01;58.97;101284.34;5053653;28;20210;-54
2022/12/20 00:36:16;;;;;;;6.20;5.57;;;10.40;82.00;;;13.06;58.70;101277.56;5053654;28;20182;-54
2022/12/20 00:38:44;;;;;;;5.50;4.73;;;10.40;82.00;;;13.07;58.97;101289.78;5054301;28;20230;-54
2022/12/20 00:41:13;;;;;;;5.57;5.03;;;10.50;82.10;;;13.09;58.77;101282.50;5054004;28;20186;-56
2022/12/20 00:43:41;;;;;;;6.90;4.70;;;10.50;82.10;;;13.12;58.81;101279.50;5052702;28;20189;-53
2022/12/20 00:46:12;;;;;;;7.93;5.40;;;10.50;82.10;;;13.12;59.00;101281.34;5053535;28;20220;-55
2022/12/20 00:48:39;;;;;;;7.07;5.33;;;10.50;82.10;;;13.12;59.01;101278.69;5053422;28;20220;-54
2022/12/20 00:51:10;;;;;;;6.87;5.40;;;10.50;82.00;;;13.10;59.04;101275.41;5054045;28;20189;-56
2022/12/20 00:53:38;;;;;;;6.70;5.23;;;10.50;82.00;;;13.10;59.13;101276.22;5053709;28;20547;-53
2022/12/20 00:56:07;;;;;;;5.10;4.53;;;10.50;82.00;;;13.14;59.11;101274.88;5053759;28;20202;-53
2022/12/20 00:58:35;;;;;;;6.47;5.10;;;10.50;82.10;;;13.16;59.02;101270.22;5053048;28;20220;-56
2022/12/20 01:01:03;;;;;;;6.20;5.30;;;10.60;82.20;;;13.21;58.99;101272.34;5052627;28;20201;-54
2022/12/20 01:03:33;;;;;;;5.80;5.30;;;10.60;82.30;;;13.20;59.06;101278.59;5053337;28;20193;-53
2022/12/20 01:06:01;;;;;;;6.57;5.43;;;10.60;82.30;;;13.22;59.02;101274.78;5052964;28;20190;-54
2022/12/20 01:08:30;;;;;;;6.70;5.30;;;10.60;82.30;;;13.23;59.04;101279.09;5052435;28;20189;-56
2022/12/20 01:10:59;;;;;;;7.93;5.27;;;10.60;82.30;;;13.26;59.02;101277.91;5052938;28;20650;-56
2022/12/20 01:13:27;;;;;;;5.60;4.80;;;10.60;82.30;;;13.28;59.15;101279.38;5053214;28;20221;-55
2022/12/20 01:15:55;;;;;;;6.03;5.07;;;10.70;82.40;;;13.31;58.95;101267.63;5053106;28;20263;-55
2022/12/20 01:18:22;;;;;;;5.50;4.83;;;10.70;82.40;;;13.31;59.17;101265.78;5053187;28;20194;-53
2022/12/20 01:21:01;;;;;;;7.27;5.57;;;10.70;82.50;;;13.30;59.15;101268.59;5053271;28;20720;-53
2022/12/20 01:23:29;;;;;;;5.10;4.60;;;10.70;82.50;;;13.35;59.21;101264.44;5053668;28;20204;-56
2022/12/20 01:25:58;;;;;;;6.07;5.47;;;10.70;82.40;;;13.35;59.31;101261.78;5053370;28;20251;-53
2022/12/20 01:28:26;;;;;;;5.90;5.23;;;10.80;82.60;;;13.40;59.29;101264.72;5053168;28;20662;-55
2022/12/20 01:30:53;;;;;;;5.00;4.50;;;10.80;82.60;;;13.46;59.28;101265.81;5053630;28;20639;-53
2022/12/20 01:33:20;;;;;;;5.20;4.67;;;10.80;82.60;;;13.52;59.04;101259.81;5053152;28;20206;-53
2022/12/20 01:35:57;;;;;;;7.53;5.00;;;10.80;82.60;;;13.56;59.01;101267.22;5053173;28;20197;-53
2022/12/20 01:38:25;;;;;;;6.10;5.00;;;10.90;82.80;;;13.57;59.07;101271.47;5052799;28;20549;-53
2022/12/20 01:40:52;;;;;;;6.63;4.57;;;10.90;82.90;;;13.53;59.38;101267.56;5053135;28;20662;-54
2022/12/20 01:43:21;;;;;;;6.17;5.03;;;10.90;82.90;;;13.53;59.52;101272.84;5053372;28;20186;-56
2022/12/20 01:45:48;;;;;;;5.87;4.83;;;11.00;82.90;;;13.52;59.71;101271.22;5053473;28;20654;-53
2022/12/20 01:48:21;;;;;;;5.40;4.43;;;11.00;83.00;;;13.58;59.69;101262.56;5052575;28;20281;-55
2022/12/20 01:50:52;;;;;;;5.93;4.13;;;11.00;82.90;;;13.63;59.62;101258.53;5052795;28;20639;-52
2022/12/20 01:53:23;;;;;;;5.90;5.27;;;11.10;83.00;;;13.65;59.53;101261.81;5053394;28;20240;-53
2022/12/20 01:55:50;;;;;;;7.10;5.07;;;11.10;83.10;;;13.69;59.66;101265.75;5053297;28;20196;-54
2022/12/20 01:58:20;;;;;;;7.40;4.93;;;11.20;83.10;;;13.65;59.77;101261.81;5052596;28;20554;-53
2022/12/20 02:00:48;;;;;;;7.70;5.07;;;11.20;83.10;;;13.74;59.79;101261.53;5052046;28;20182;-53
2022/12/20 02:03:16;;;;;;;5.60;5.00;;;11.20;83.00;;;13.78;59.53;101256.72;5052870;28;20612;-53
2022/12/20 02:05:45;;;;;;;8.47;5.17;;;11.30;83.10;;;13.78;59.72;101251.44;5052768;28;20190;-54
2022/12/20 02:08:16;;;;;;;5.53;4.80;;;11.30;82.90;;;13.79;59.74;101250.41;5052283;28;20244;-53
2022/12/20 02:11:07;;;;;;;5.80;4.50;;;11.30;82.90;;;13.79;59.75;101253.06;5056403;28;20190;-56
2022/12/20 02:13:46;;;;;;;5.57;4.70;;;11.30;82.90;;;13.80;59.66;101241.47;5056684;28;20226;-54
2022/12/20 02:16:24;;;;;;;7.73;4.87;;;11.30;83.60;;;13.86;59.62;101240.78;5056781;28;20197;-54
2022/12/20 02:19:04;;;;;;;4.87;4.47;;;11.40;82.80;;;13.89;59.52;101225.31;5056016;28;20243;-56
2022/12/20 02:21:38;;;;;;;6.00;4.60;;;11.40;82.80;;;13.90;59.33;101224.34;5056157;28;20193;-57
2022/12/20 02:24:47;;;;;;;6.17;4.53;;;11.40;82.70;;;13.86;59.44;101223.03;5055285;28;20537;-56
2022/12/20 02:27:40;;;;;;;7.37;4.30;;;11.40;82.60;;;13.88;59.41;101218.38;5054975;28;20248;-56
2022/12/20 02:30:14;;;;;;;5.80;4.83;;;11.50;82.60;;;13.85;59.71;101226.72;5056360;28;20221;-54
2022/12/20 02:32:49;;;;;;;5.73;4.43;;;11.40;82.60;;;13.89;59.60;101224.50;5056472;28;20181;-56
2022/12/20 02:35:21;;;;;;;5.60;4.63;;;11.40;82.60;;;13.90;59.69;101224.34;5054933;28;20200;-54
2022/12/20 02:37:52;;;;;;;6.93;4.60;;;11.40;82.70;;;13.94;58.94;101219.47;5055947;28;20263;-55
2022/12/20 02:40:24;;;;;;;4.87;4.33;;;11.40;82.70;;;13.97;59.24;101219.94;5055544;28;20206;-54
2022/12/20 02:42:58;;;;;;;6.27;4.90;;;11.40;82.70;;;14.01;59.27;101220.38;5055907;28;20206;-54
2022/12/20 02:45:32;;;;;;;6.77;5.03;;;11.40;82.70;;;13.96;59.40;101220.13;5055708;28;20213;-53
2022/12/20 02:48:06;;;;;;;4.63;4.13;;;11.40;82.70;;;13.94;59.36;101222.13;5055845;28;20212;-56
2022/12/20 02:50:39;;;;;;;4.43;4.03;;;11.40;82.70;;;13.90;59.62;101220.88;5055788;28;20221;-54
2022/12/20 02:53:08;;;;;;;4.80;4.33;;;11.40;82.90;;;13.93;59.58;101217.84;5054627;28;20213;-53
2022/12/20 02:55:45;;;;;;;4.40;4.00;;;11.40;82.80;;;13.95;59.62;101213.19;5055708;28;20197;-53
2022/12/20 02:58:25;;;;;;;6.63;4.60;;;11.40;82.90;;;13.90;59.54;101205.81;5055469;28;20208;-55
2022/12/20 03:00:58;;;;;;;4.57;4.13;;;11.40;83.00;;;13.89;59.71;101211.28;5054683;28;20589;-53
2022/12/20 03:03:25;;;;;;;4.80;4.17;;;11.40;83.10;;;13.88;59.93;101210.44;5055278;28;20178;-53
2022/12/20 03:05:54;;;;;;;4.60;4.20;;;11.40;83.00;;;13.90;59.72;101207.63;5055401;28;20193;-53
2022/12/20 03:08:22;;;;;;;4.60;4.13;;;11.40;83.00;;;13.93;59.73;101199.34;5054773;28;20255;-55
2022/12/20 03:10:52;;;;;;;5.03;4.50;;;11.40;83.70;;;13.97;59.59;101209.38;5055250;28;20198;-52
2022/12/20 03:13:20;;;;;;;4.80;3.97;;;11.50;83.00;;;14.00;59.49;101208.16;5055321;28;20214;-55
2022/12/20 03:15:47;;;;;;;4.33;3.93;;;11.50;82.90;;;14.03;59.47;101208.59;5055559;28;20596;-53
2022/12/20 03:18:15;;;;;;;5.43;3.90;;;11.50;82.90;;;14.07;59.28;101198.47;5054567;28;20194;-53
2022/12/20 03:20:42;;;;;;;5.77;4.20;;;11.50;82.90;;;14.09;59.30;101212.34;5055581;28;20573;-56
2022/12/20 03:23:10;;;;;;;4.90;4.07;;;11.50;82.90;;;14.09;59.18;101217.66;5054897;28;20198;-55
2022/12/20 03:25:37;;;;;;;4.77;4.10;;;11.50;82.90;;;14.10;59.22;101198.91;5055238;28;20670;-53
2022/12/20 03:28:04;;;;;;;5.17;4.00;;;11.50;82.90;;;14.09;59.09;101201.75;5054729;28;20202;-56
2022/12/20 03:30:31;;;;;;;5.90;4.67;;;11.50;82.90;;;14.05;59.29;101195.19;5054801;28;20213;-53
2022/12/20 03:32:58;;;;;;;5.77;4.10;;;11.50;82.90;;;14.05;59.32;101205.75;5054568;28;20225;-55
2022/12/20 03:35:26;;;;;;;5.13;4.30;;;11.50;82.90;;;14.01;59.30;101201.84;5054529;28;20668;-53
2022/12/20 03:37:54;;;;;;;4.47;4.07;;;11.50;82.90;;;14.04;59.51;101209.44;5054802;28;20595;-54
2022/12/20 03:40:22;;;;;;;4.43;4.00;;;11.50;82.80;;;14.07;59.43;101214.38;5054867;28;20670;-53
2022/12/20 03:42:49;;;;;;;5.63;4.23;;;11.50;82.80;;;14.10;59.15;101208.69;5055022;28;20197;-53
2022/12/20 03:45:16;;;;;;;5.83;4.20;;;11.50;82.60;;;14.14;59.06;101200.19;5054933;28;20186;-52
2022/12/20 03:47:43;;;;;;;6.17;3.83;;;11.50;82.60;;;14.21;58.91;101200.28;5055244;28;20201;-57
2022/12/20 03:50:11;;;;;;;4.27;3.83;;;11.50;82.60;;;14.24;58.93;101205.19;5054391;28;20209;-56
2022/12/20 03:52:39;;;;;;;4.30;3.90;;;11.60;82.70;;;14.27;58.92;101194.22;5054348;28;20189;-53
2022/12/20 03:55:08;;;;;;;5.60;4.10;;;11.60;82.60;;;14.30;59.04;101193.03;5054691;28;20218;-55
2022/12/20 03:57:35;;;;;;;6.77;3.70;;;11.60;82.50;;;14.30;58.81;101193.88;5054361;28;20194;-53
2022/12/20 04:00:03;;;;;;;4.07;3.67;;;11.60;82.40;;;14.27;58.47;101188.91;5052869;28;20389;-53
2022/12/20 04:02:30;;;;;;;4.40;4.00;;;11.60;82.30;;;14.28;58.63;101190.56;5054243;28;20546;-56
2022/12/20 04:04:58;;;;;;;5.77;4.30;;;11.60;82.30;;;14.31;58.53;101190.22;5054369;28;20263;-55
2022/12/20 04:07:25;;;;;;;5.03;3.70;;;11.60;82.20;;;14.33;58.50;101188.22;5054101;28;20265;-55
2022/12/20 04:09:53;;;;;;;4.17;3.77;;;11.60;82.20;;;14.34;58.66;101189.03;5053895;28;20218;-53
2022/12/20 04:12:20;;;;;;;5.90;3.67;;;11.70;82.30;;;14.35;58.64;101191.50;5054516;28;20194;-53
2022/12/20 04:14:47;;;;;;;6.47;3.40;;;11.70;82.30;;;14.35;58.49;101191.50;5054239;28;20225;-55
2022/12/20 04:17:14;;;;;;;4.70;3.70;;;11.70;82.30;;;14.32;58.41;101189.22;5054247;28;20190;-53
2022/12/20 04:19:41;;;;;;;4.37;3.97;;;11.70;82.30;;;14.34;58.78;101189.84;5052961;28;20206;-55
2022/12/20 04:22:08;;;;;;;4.20;3.20;;;11.70;82.30;;;14.37;58.52;101193.94;5054525;28;20197;-54
2022/12/20 04:24:37;;;;;;;4.50;4.10;;;11.70;82.30;;;14.38;58.62;101196.41;5052872;28;20288;-54
2022/12/20 04:27:05;;;;;;;4.40;4.00;;;11.70;82.30;;;14.40;58.63;101183.81;5054087;28;20205;-53
2022/12/20 04:29:32;;;;;;;4.57;3.43;;;11.70;82.30;;;14.40;58.65;101189.13;5053256;28;20220;-54
2022/12/20 04:31:59;;;;;;;5.40;3.47;;;11.70;82.30;;;14.41;58.62;101193.38;5053117;28;20194;-55
2022/12/20 04:34:26;;;;;;;4.33;3.77;;;11.70;82.40;;;14.40;58.56;101199.69;5053540;28;20308;-56
2022/12/20 04:36:53;;;;;;;3.43;3.13;;;11.80;82.60;;;14.40;58.80;101188.28;5053580;28;20194;-54
2022/12/20 04:39:20;;;;;;;4.37;3.97;;;11.80;82.60;;;14.41;58.79;101180.13;5053052;28;20202;-56
2022/12/20 04:41:47;;;;;;;3.70;3.40;;;11.80;82.70;;;14.42;59.02;101176.50;5053569;28;20205;-56
2022/12/20 04:44:16;;;;;;;4.27;3.23;;;11.80;82.70;;;14.44;59.00;101169.19;5053404;28;20186;-56
2022/12/20 04:46:43;;;;;;;4.63;3.83;;;11.80;82.80;;;14.42;59.32;101160.59;5053314;28;20194;-54
2022/12/20 04:49:10;;;;;;;4.23;3.37;;;11.80;83.00;;;14.41;59.24;101174.84;5053164;28;20214;-55
2022/12/20 04:51:37;;;;;;;4.40;3.87;;;11.80;83.00;;;14.38;59.31;101172.56;5053355;28;20190;-56
2022/12/20 04:54:04;;;;;;;4.33;3.50;;;11.80;83.10;;;14.38;59.39;101153.22;5053115;28;20222;-53
2022/12/20 04:56:31;;;;;;;4.80;3.63;;;11.80;83.20;;;14.36;59.59;101165.84;5052481;28;20186;-54
2022/12/20 04:58:59;;;;;;;3.57;3.10;;;11.80;83.30;;;14.34;59.83;101166.00;5052981;28;20275;-54
2022/12/20 05:01:27;;;;;;;3.60;3.20;;;11.80;84.20;;;14.31;59.85;101166.38;5052482;28;20252;-56
2022/12/20 05:03:54;;;;;;;4.57;3.67;;;11.80;83.50;;;14.28;60.14;101172.03;5053707;28;20204;-55
2022/12/20 05:06:22;;;;;;;4.47;3.50;;;11.80;83.80;;;14.34;60.43;101163.38;5053082;28;20208;-56
2022/12/20 05:08:49;;;;;;;4.97;3.27;;;11.90;83.90;;;14.33;60.36;101160.91;5052287;28;20217;-55
2022/12/20 05:11:16;;;;;;;4.83;3.67;;;11.90;84.10;;;14.36;60.54;101166.63;5053139;28;20209;-56
2022/12/20 05:13:43;;;;;;;4.50;3.60;;;11.90;84.30;;;14.40;60.74;101167.91;5053096;28;20200;-56
2022/12/20 05:16:10;;;;;;;3.37;3.07;;;11.90;84.40;;;14.41;60.97;101169.53;5052901;28;20204;-56
2022/12/20 05:18:39;;;;;;;3.53;3.23;;;11.90;84.80;;;14.43;61.07;101172.81;5052727;28;20213;-56
2022/12/20 05:26:46;;;;;;;4.80;3.70;;;12.00;85.60;;;14.41;62.38;101166.91;5052942;28;20239;-53
2022/12/20 05:29:13;;;;;;;4.43;3.07;;;12.00;86.30;;;14.40;62.39;101157.31;5052960;28;20224;-56
2022/12/20 05:31:40;;;;;;;4.33;3.83;;;12.00;86.50;;;14.33;63.30;101150.31;5052885;28;20193;-56
2022/12/20 05:34:09;;;;;;;3.73;3.30;;;12.00;87.30;;;14.26;63.65;101147.59;5052743;28;20288;-55
2022/12/20 05:36:36;;;;;;;4.87;3.80;;;12.00;87.80;;;14.20;64.19;101148.31;5052941;28;20206;-53
2022/12/20 05:39:03;;;;;;;6.03;3.93;;;12.00;88.20;;;14.26;63.92;101147.59;5052557;28;20218;-54
2022/12/20 05:41:31;;;;;;;3.90;3.43;;;12.00;88.10;;;14.22;64.48;101139.19;5052352;28;20652;-56
2022/12/20 05:43:58;;;;;;;4.23;3.60;;;12.00;88.50;;;14.24;64.42;101142.47;5053414;28;20181;-55
2022/12/20 05:46:25;;;;;;;3.80;3.43;;;12.00;88.60;;;14.24;64.46;101136.34;5056722;28;20194;-54
2022/12/20 05:48:52;;;;;;;5.07;3.43;;;11.90;88.60;;;14.18;64.48;101139.75;5056876;28;20221;-54
2022/12/20 05:51:20;;;;;;;6.00;3.57;;;11.90;88.70;;;14.22;64.54;101143.66;5056044;28;20197;-54
2022/12/20 05:53:48;;;;;;;4.80;3.60;;;12.00;88.70;;;14.23;64.56;101155.91;5056404;28;20650;-53
2022/12/20 05:56:15;;;;;;;3.77;3.40;;;11.90;88.60;;;14.29;64.33;101151.69;5056204;28;20231;-53
2022/12/20 05:58:42;;;;;;;3.93;3.57;;;12.00;88.60;;;14.25;64.44;101169.75;5056047;28;20205;-55
2022/12/20 06:01:09;;;;;;;4.17;3.73;;;11.90;88.60;;;14.26;64.16;101184.66;5055413;28;20289;-54
2022/12/20 06:03:36;;;;;;;4.07;3.63;;;11.90;88.60;;;14.25;64.24;101175.88;5056921;28;20655;-54
2022/12/20 06:06:05;;;;;;;4.87;4.00;;;12.00;88.70;;;14.24;64.32;101181.34;5056435;28;20208;-54
2022/12/20 06:08:42;;;;;;;3.90;3.50;;;11.90;88.80;;;14.20;64.62;101186.22;5059412;28;20754;-55
2022/12/20 06:11:09;;;;;;;6.10;4.20;;;11.90;88.80;;;14.28;64.38;101193.22;5057370;28;20202;-55
2022/12/20 06:13:36;;;;;;;3.80;3.50;;;12.00;88.90;;;14.35;64.39;101202.09;5057104;28;20197;-54
2022/12/20 06:16:04;;;;;;;5.00;3.80;;;12.00;88.90;;;14.31;64.19;101178.81;5056068;28;20338;-55
2022/12/20 06:18:31;;;;;;;4.10;3.70;;;12.00;89.10;;;14.26;64.65;101177.50;5055267;28;20186;-56
2022/12/20 06:20:58;;;;;;;5.03;4.23;;;11.90;89.10;;;14.23;64.67;101179.72;5056640;28;20228;-53
2022/12/20 06:23:25;;;;;;;4.07;3.77;;;11.90;89.10;;;14.21;64.58;101179.09;5056849;28;20193;-56
2022/12/20 06:25:54;;;;;;;4.27;3.87;;;11.90;89.10;;;14.19;64.94;101181.91;5056246;28;20190;-54
2022/12/20 06:28:21;;;;;;;4.33;3.97;;;11.90;89.30;;;14.21;64.85;101179.09;5056096;28;20549;-53
2022/12/20 06:30:52;;;;;;;6.40;4.10;;;11.90;89.30;;;14.19;64.96;101171.31;5056219;28;20198;-53
2022/12/20 06:33:20;;;;;;;3.97;3.67;;;11.90;89.50;;;14.20;64.78;101172.16;5056481;28;20178;-55
2022/12/20 06:35:49;;;;;;;5.47;3.93;;;11.80;89.40;;;14.16;64.83;101165.59;5055802;28;20209;-55
2022/12/20 06:38:16;;;;;;;4.40;4.00;;;11.80;89.50;;;14.15;65.04;101153.34;5055320;28;20293;-53
2022/12/20 06:40:44;;;;;;;4.33;3.93;;;11.80;89.50;;;14.17;64.85;101151.34;5055887;28;20194;-60
2022/12/20 06:43:12;;;;;;;4.90;4.50;;;11.80;89.50;;;14.19;64.76;101157.28;5054826;28;20194;-54
2022/12/20 06:45:39;;;;;;;4.40;4.00;;;11.80;89.60;;;14.21;64.76;101142.03;5055725;28;20264;-54
2022/12/20 06:48:08;;;;;;;4.90;4.40;;;11.80;89.40;;;14.22;64.55;101154.25;5054566;28;20673;-56
2022/12/20 06:50:36;;;;;;;5.20;4.10;;;11.80;89.50;;;14.22;64.57;101143.66;5054559;28;20357;-53
2022/12/20 06:53:03;;;;;;;6.27;4.63;;;11.80;89.30;;;14.21;64.31;101163.22;5055102;28;20198;-57
2022/12/20 06:55:30;;;;;;;5.97;4.40;;;11.80;89.40;;;14.13;64.73;101152.72;5054459;28;20225;-55
2022/12/20 06:57:57;;;;;;;4.87;4.40;;;11.70;89.30;;;14.08;64.70;101148.00;5054486;28;20328;-57
2022/12/20 07:00:26;;;;;;;5.07;4.00;;;11.70;89.40;;;14.10;64.61;101150.44;5049121;28;20252;-55
2022/12/20 07:02:53;;;;;;;5.93;4.47;;;11.70;89.30;;;14.11;64.57;101146.81;5053853;28;20276;-54
2022/12/20 07:05:21;;;;;;;5.03;4.33;;;11.70;89.20;;;14.11;64.26;101136.22;5052644;28;20190;-57
2022/12/20 07:07:48;;;;;;;4.87;4.37;;;11.70;89.10;;;14.14;64.45;101141.94;5053521;28;20272;-55
2022/12/20 07:10:16;;;;;;;4.57;4.17;;;11.70;89.00;;;14.18;63.92;101142.41;5054323;28;20554;-54
2022/12/20 07:12:43;;;;;;;6.00;3.97;;;11.70;88.90;;;14.19;64.09;101138.75;5054200;28;20194;-55
2022/12/20 07:15:14;;;;;;;4.37;3.67;;;11.70;88.80;;;14.14;63.82;101141.13;5052789;28;20574;-56
2022/12/20 07:17:43;;;;;;;4.63;4.03;;;11.70;88.60;;;14.17;63.89;101146.03;5046587;28;20193;-54
2022/12/20 07:20:13;;;;;;;4.53;3.70;;;11.70;88.50;;;14.16;63.82;101144.41;5040701;28;20226;-56
2022/12/20 07:22:41;;;;;;;4.43;3.77;;;11.70;88.40;;;14.17;63.40;101146.03;5034231;28;20190;-56
2022/12/20 07:25:10;;;;;;;5.13;4.20;;;11.70;88.20;;;14.22;63.29;101138.34;5051387;28;20642;-53
2022/12/20 07:27:37;;;;;;;5.17;4.50;;;11.70;88.10;;;14.25;63.08;101141.47;5055233;28;20200;-55
2022/12/20 07:30:06;;;;;;;4.90;4.40;;;11.80;87.90;;;14.26;62.95;101150.22;5053830;28;20675;-56
2022/12/20 07:32:33;;;;;;;4.23;3.83;;;11.80;87.70;;;14.29;62.79;101133.16;5053634;28;20575;-56
2022/12/20 07:35:01;;;;;;;5.03;4.03;;;11.80;87.60;;;14.32;62.68;101141.56;5051682;28;20263;-54
2022/12/20 07:37:29;;;;;;;5.97;4.43;;;11.80;87.20;;;14.35;62.54;101138.53;5018033;28;1030329;-56
2022/12/20 07:39:56;;;;;;;4.93;3.90;;;11.80;86.90;;;14.41;62.18;101143.06;5054327;28;20218;-54
2022/12/20 07:42:23;;;;;;;8.10;4.07;;;11.90;87.00;;;14.43;61.90;101141.03;5055138;28;20209;-56
2022/12/20 07:45:01;;;;;;;4.97;4.43;;;11.90;86.50;;;14.45;61.85;101144.34;5054315;28;20296;-56
2022/12/20 07:47:28;;;;;;;4.87;4.10;;;12.00;86.30;;;14.46;61.65;101138.00;5055501;28;20694;-56
2022/12/20 07:49:55;;;;;;;3.97;3.33;;;12.00;86.90;;;14.49;61.47;101135.00;5053265;28;20209;-56
2022/12/20 07:52:27;;;;;;;5.47;4.00;;;12.00;86.00;;;14.55;61.44;101136.03;5053808;28;20189;-54
2022/12/20 07:55:01;;;;;;;3.80;3.50;;;12.00;85.90;;;14.55;61.11;101139.53;5038922;28;20275;-57
2022/12/20 07:57:36;;;;;;;4.33;3.57;;;12.00;85.70;;;14.48;61.29;101130.69;5036632;28;20260;-57
2022/12/20 08:00:07;;;;;;;4.70;3.80;;;12.00;85.60;;;14.45;61.47;101133.75;5032463;28;20328;-55
2022/12/20 08:02:43;;;;;;;5.33;3.90;;;12.00;85.40;;;14.43;61.39;101127.78;5041073;28;20190;-53
2022/12/20 08:05:11;;;;;;;3.80;3.50;;;12.00;85.40;;;14.46;61.50;101119.47;5055706;28;20218;-58
2022/12/20 08:07:42;;;;;;;4.80;3.83;;;12.00;85.30;;;14.45;61.39;101122.31;5054928;28;20182;-56
2022/12/20 08:10:12;;;;;;;5.70;4.13;;;12.00;85.30;;;14.41;61.79;101121.88;5054108;28;20573;-54
2022/12/20 08:12:44;;;;;;;6.53;4.17;;;12.10;85.50;;;14.41;61.54;101116.56;5033718;28;20218;-56
2022/12/20 08:15:12;;;;;;;5.30;4.00;;;12.10;85.50;;;14.43;61.63;101111.91;5040858;28;20214;-55
2022/12/20 08:17:40;;;;;;;4.97;3.83;;;12.10;85.40;;;14.47;61.69;101118.47;5054068;28;20193;-56
2022/12/20 08:20:09;;;;;;;5.00;3.80;;;12.10;85.40;;;14.46;61.41;101108.88;5053689;28;20229;-55
2022/12/20 08:22:36;;;;;;;6.27;4.23;;;12.10;85.40;;;14.49;61.60;101107.69;5049934;28;20190;-56
2022/12/20 08:25:06;;;;;;;5.37;3.63;;;12.10;85.40;;;14.52;61.52;101108.13;5053485;28;20190;-56
2022/12/20 08:27:33;;;;;;;4.07;3.67;;;12.10;85.40;;;14.54;61.58;101108.75;5037778;28;20225;-56
2022/12/20 08:30:00;;;;;;;5.73;3.93;;;12.20;86.20;;;14.59;61.49;101101.06;5037315;28;20229;-54
2022/12/20 08:32:28;;;;;;;8.10;3.80;;;12.20;85.40;;;14.61;61.33;101096.38;5052868;28;20198;-53
2022/12/20 08:34:55;;;;;;;5.77;3.73;;;12.20;85.40;;;14.65;61.52;101112.69;5053441;28;20225;-56
2022/12/20 08:37:22;;;;;;;5.23;4.20;;;12.30;85.40;;;14.71;61.32;101106.66;5053637;28;20252;-53
2022/12/20 08:39:49;;;;;;;5.50;3.97;;;12.30;85.30;;;14.72;61.38;101103.81;5052226;28;20217;-53
2022/12/20 08:42:17;;;;;;;5.40;4.23;;;12.30;85.30;;;14.68;61.25;101101.72;5050248;28;20189;-53
2022/12/20 08:44:45;;;;;;;4.90;4.10;;;12.30;85.30;;;14.71;61.39;101107.44;5050161;28;20194;-56
2022/12/20 08:47:12;;;;;;;6.10;4.00;;;12.30;85.30;;;14.74;61.54;101095.66;5053502;28;20200;-54
2022/12/20 08:49:39;;;;;;;6.40;3.87;;;12.40;85.30;;;14.84;61.39;101096.13;5052924;28;20685;-56
2022/12/20 08:52:13;;;;;;;6.03;4.00;;;12.40;85.30;;;14.86;61.21;101096.75;5053656;28;20239;-55
2022/12/20 08:54:40;;;;;;;4.00;3.47;;;12.50;85.40;;;14.86;61.22;101099.41;5053522;28;20200;-53
2022/12/20 08:57:08;;;;;;;4.53;4.10;;;12.40;85.40;;;14.95;61.03;101108.06;5047050;28;20209;-57
2022/12/20 08:59:36;;;;;;;5.70;3.90;;;12.50;85.40;;;14.98;61.09;101099.69;5033933;28;20240;-55
2022/12/20 09:02:03;;;;;;;4.53;4.10;;;12.50;85.40;;;15.05;60.84;101097.94;5032687;28;20190;-54
2022/12/20 09:04:31;;;;;;;6.57;3.87;;;12.60;85.50;;;15.06;61.14;101097.72;5033162;28;20186;-52
2022/12/20 09:06:58;;;;;;;5.03;3.97;;;12.60;85.30;;;15.02;60.86;101104.44;5034562;28;20194;-57
2022/12/20 09:09:25;;;;;;;4.70;4.20;;;12.60;85.20;;;15.07;60.82;101093.25;5053286;28;20242;-55
2022/12/20 09:11:54;;;;;;;6.03;3.97;;;12.60;85.00;;;15.17;60.50;101085.72;5053452;28;20678;-56
2022/12/20 09:14:22;;;;;;;4.77;4.10;;;12.60;84.90;;;15.18;60.53;101092.69;5054022;28;20198;-55
2022/12/20 09:16:51;;;;;;;4.63;3.90;;;12.70;84.90;;;15.24;60.14;101086.59;5053016;28;20217;-54
2022/12/20 09:19:18;;;;;;;5.60;3.57;;;12.70;84.60;;;15.28;60.11;101082.53;5053037;28;20205;-54
2022/12/20 09:21:45;;;;;;;4.30;3.90;;;12.80;84.60;;;15.39;59.96;101084.63;5054312;28;20186;-55
2022/12/20 09:24:12;;;;;;;4.30;3.90;;;12.80;84.40;;;15.42;59.67;101069.16;5055692;28;20190;-54
2022/12/20 09:26:39;;;;;;;3.73;3.33;;;12.80;84.10;;;15.44;59.56;101067.16;5053506;28;20194;-55
2022/12/20 09:29:11;;;;;;;4.33;3.37;;;12.80;83.90;;;15.49;59.27;101069.19;5052567;28;20288;-56
2022/12/20 09:31:38;;;;;;;5.90;4.37;;;12.90;83.90;;;15.48;59.30;101067.56;5052941;28;20197;-53
2022/12/20 09:34:09;;;;;;;6.23;3.90;;;12.90;83.60;;;15.48;59.32;101068.38;5052894;28;20614;-54
2022/12/20 09:36:37;;;;;;;5.67;3.87;;;13.00;83.50;;;15.44;59.35;101071.59;5052615;28;20654;-56
2022/12/20 09:39:04;;;;;;;3.77;3.47;;;12.90;83.20;;;15.50;59.21;101068.16;5053021;28;20248;-54
2022/12/20 09:41:37;;;;;;;5.43;4.00;;;13.00;83.90;;;15.53;58.98;101068.59;5052789;28;20681;-54
2022/12/20 09:44:14;;;;;;;7.07;3.90;;;13.00;83.00;;;15.55;58.79;101068.41;5052764;28;20596;-54
2022/12/20 09:46:44;;;;;;;5.23;3.80;;;13.10;82.80;;;15.50;58.92;101073.47;5053027;28;20200;-56
2022/12/20 09:49:18;;;;;;;5.67;4.07;;;13.10;82.60;;;15.48;59.00;101070.22;5052492;28;20564;-55
2022/12/20 09:52:22;;;;;;;4.27;3.60;;;13.10;82.30;;;15.39;58.74;101076.66;5052858;28;20197;-55
2022/12/20 09:55:12;;;;;;;6.13;3.60;;;13.10;82.30;;;15.36;58.83;101074.41;5052721;28;20182;-54
2022/12/20 09:57:56;;;;;;;4.50;4.07;;;13.10;82.10;;;15.38;59.08;101083.00;5052477;28;20205;-54
2022/12/20 10:00:23;;;;;;;4.73;3.40;;;13.10;82.10;;;15.45;59.04;101062.66;5051610;28;20653;-54
2022/12/20 10:02:51;;;;;;;3.90;3.23;;;13.10;82.10;;;15.51;58.85;101069.81;5053614;28;20277;-56
2022/12/20 10:05:48;;;;;;;5.10;4.03;;;13.10;82.20;;;15.52;58.71;101064.31;5058203;28;20778;-56
2022/12/20 10:08:42;;;;;;;5.70;4.07;;;13.10;82.10;;;15.55;58.12;101047.16;5060719;28;20194;-53
2022/12/20 10:11:47;;;;;;;3.73;3.13;;;13.20;82.00;;;15.52;58.36;101042.28;5052861;28;20228;-58
2022/12/20 10:14:56;;;;;;;6.60;4.47;;;13.20;81.90;;;15.57;58.51;101045.13;5051583;28;20267;-58
2022/12/20 10:17:48;;;;;;;4.23;3.70;;;13.20;81.60;;;15.49;58.44;101030.22;5040657;28;20625;-57
2022/12/20 10:20:33;;;;;;;4.33;3.83;;;13.20;81.40;;;15.55;58.32;101024.13;5052209;28;20229;-55
2022/12/20 10:23:14;;;;;;;4.10;3.70;;;13.20;81.40;;;15.66;58.02;101025.38;5049543;28;20256;-55
2022/12/20 10:25:43;;;;;;;4.67;4.27;;;13.30;81.40;;;15.71;57.68;101020.28;5046325;28;20214;-54
2022/12/20 10:28:15;;;;;;;4.23;3.53;;;13.30;81.00;;;15.72;57.57;101016.59;5045924;28;20248;-55
2022/12/20 10:30:45;;;;;;;4.73;3.73;;;13.30;80.90;;;15.69;57.55;101017.00;5045688;28;20224;-55